Neligh, NE (68756)

5:51 PM CST on February 14, 2016 (GMT -0600)
KNENELIG1 | | Change Station
CLOSE
Current Station
Personal Weather Station
Location: Neligh, NE
Elevation: 1750 ft
Nearby Weather Stations

Elev 1750 ft 42.13 °N, 98.03 °W | Updated 1 minute ago

Overcast
Overcast
38.8 °F
Feels Like 39 °F
N
0.0
Wind Variable Wind from NNE
Gusts 1.0 mph

Today
High -- | Low -- °F
--% Chance of Precip.
Yesterday
High -- | Low -- °F
Precip. -- in
Pressure 29.81 in
Visibility 10.0 miles
Clouds Overcast 7500 ft
Windchill 39 °F
Dew Point 34 °F
Humidity 82%
Rainfall 0.11 in
Snow Depth Not available.
7:30 AM 6:03 PM
Waxing Crescent, 46% visible
METAR KBVN 142335Z AUTO 00000KT 10SM OVC075 05/00 A2981 RMK AO2 T00450001
Pressure 29.81 in
Visibility 10.0 miles
Clouds Overcast 7500 ft
Windchill 39 °F
Dew Point 34 °F
Humidity 82%
Rainfall 0.11 in
Snow Depth Not available.
7:30 AM 6:03 PM
Waxing Crescent, 46% visible
METAR KBVN 142335Z AUTO 00000KT 10SM OVC075 05/00 A2981 RMK AO2 T00450001

10-Day Weather Forecast

Almanac

Astronomy

Feb. 14, 2016 Rise Set
Actual Time
Civil Twilight
Nautical Twilight
Astronomical Twilight
Moon
Length of Visible Light
Length of Day
Tomorrow will be .
, % of the Moon is Illuminated

Today's Extremes

State Highs State Lows

Community

WunderPhotos

Upload Photos

1,892,929 photos uploaded!

WunderBlog® & News

Nearby

Air Quality

  Air Quality AQ Index Pollutant
Not available.

Snow Depth

Station Depth Elevation

Earthquake Activity

City Distance Mag. Time & Date
Minimum magnitude displayed is 2.5.

Coastal Water Temperatures

Place Temperature

Stations

Nearby Weather Stations

Station Location Temp. Windchill Dew Point Humidity Wind Precip. Elev Updated Type
                   

Watches & Warnings

There are currently no watches in effect.